createdAt,value
2023-02-27T00:00:28.187Z,-0.20
2023-02-27T00:03:01.287Z,-0.20
2023-02-27T00:05:35.002Z,-0.20
2023-02-27T00:08:08.171Z,-0.20
2023-02-27T00:10:41.471Z,-0.20
2023-02-27T00:13:14.433Z,-0.20
2023-02-27T00:15:50.522Z,-0.20
2023-02-27T00:18:23.650Z,-0.20
2023-02-27T00:20:56.462Z,-0.20
2023-02-27T00:23:29.868Z,-0.30
2023-02-27T00:26:04.068Z,-0.30
2023-02-27T00:28:37.179Z,-0.30
2023-02-27T00:31:10.595Z,-0.30
2023-02-27T00:33:44.100Z,-0.30
2023-02-27T00:36:17.089Z,-0.30
2023-02-27T00:38:50.198Z,-0.30
2023-02-27T00:41:25.157Z,-0.30
2023-02-27T00:43:58.362Z,-0.30
2023-02-27T00:46:31.386Z,-0.30
2023-02-27T00:49:04.404Z,-0.30
2023-02-27T00:51:38.049Z,-0.30
2023-02-27T00:54:11.504Z,-0.30
2023-02-27T00:56:44.671Z,-0.30
2023-02-27T00:59:17.920Z,-0.30
2023-02-27T01:01:51.380Z,-0.30
2023-02-27T01:04:25.194Z,-0.40
2023-02-27T01:06:59.825Z,-0.40
2023-02-27T01:09:33.136Z,-0.40
2023-02-27T01:12:06.517Z,-0.40
2023-02-27T01:14:40.006Z,-0.40
2023-02-27T01:17:13.315Z,-0.40
2023-02-27T01:19:46.784Z,-0.40
2023-02-27T01:22:19.761Z,-0.40
2023-02-27T01:24:52.705Z,-0.40
2023-02-27T01:27:25.752Z,-0.40
2023-02-27T01:29:58.835Z,-0.40
2023-02-27T01:32:32.032Z,-0.40
2023-02-27T01:35:05.675Z,-0.40
2023-02-27T01:37:39.217Z,-0.40
2023-02-27T01:40:13.196Z,-0.40
2023-02-27T01:42:47.201Z,-0.40
2023-02-27T01:45:31.377Z,-0.40
2023-02-27T01:48:19.796Z,-0.40
2023-02-27T01:51:01.635Z,-0.40
2023-02-27T01:53:37.041Z,-0.40
2023-02-27T01:56:15.173Z,-0.50
2023-02-27T01:58:49.942Z,-0.50
2023-02-27T02:01:24.442Z,-0.50
2023-02-27T02:04:10.454Z,-0.50
2023-02-27T02:06:48.249Z,-0.50
2023-02-27T02:09:21.954Z,-0.50
2023-02-27T02:11:56.428Z,-0.60
2023-02-27T02:14:29.270Z,-0.60
2023-02-27T02:17:21.020Z,-0.60
2023-02-27T02:20:19.537Z,-0.60
2023-02-27T02:23:11.210Z,-0.60
2023-02-27T02:26:06.376Z,-0.60
2023-02-27T02:29:21.882Z,-0.60
2023-02-27T02:32:30.317Z,-0.60
2023-02-27T02:35:24.768Z,-0.70
2023-02-27T02:38:19.549Z,-0.70
2023-02-27T02:41:01.674Z,-0.70
2023-02-27T02:43:54.683Z,-0.70
2023-02-27T02:46:27.600Z,-0.70
2023-02-27T02:49:28.289Z,-0.80
2023-02-27T02:52:20.358Z,-0.70
2023-02-27T02:55:15.975Z,-0.80
2023-02-27T02:57:55.435Z,-0.80
2023-02-27T03:00:35.827Z,-0.70
2023-02-27T03:03:29.257Z,-0.80
2023-02-27T03:06:33.351Z,-0.80
2023-02-27T03:09:29.026Z,-0.80
2023-02-27T03:12:09.390Z,-0.80
2023-02-27T03:14:54.468Z,-0.80
2023-02-27T03:17:48.293Z,-0.80
2023-02-27T03:20:27.342Z,-0.80
2023-02-27T03:23:09.048Z,-0.80
2023-02-27T03:25:46.447Z,-0.80
2023-02-27T03:28:24.435Z,-0.80
2023-02-27T03:31:15.817Z,-0.90
2023-02-27T03:34:01.457Z,-0.90
2023-02-27T03:37:01.205Z,-0.90
2023-02-27T03:39:45.098Z,-0.90
2023-02-27T03:42:34.581Z,-0.90
2023-02-27T03:45:32.693Z,-0.90
2023-02-27T03:48:08.037Z,-0.90
2023-02-27T03:50:41.346Z,-0.90
2023-02-27T03:53:25.751Z,-1.00
2023-02-27T03:56:01.103Z,-1.00
2023-02-27T03:58:34.802Z,-1.00
2023-02-27T04:01:08.707Z,-1.00
2023-02-27T04:03:53.879Z,-1.00
2023-02-27T04:07:15.098Z,-1.00
2023-02-27T04:10:03.422Z,-1.00
2023-02-27T04:12:57.642Z,-0.90
2023-02-27T04:15:45.893Z,-1.00
2023-02-27T04:18:57.090Z,-0.90
2023-02-27T04:21:50.225Z,-1.00
2023-02-27T04:24:44.509Z,-1.00
2023-02-27T04:27:44.340Z,-1.00
2023-02-27T04:30:25.978Z,-1.00
2023-02-27T04:33:14.349Z,-1.00
2023-02-27T04:36:32.034Z,-1.10
2023-02-27T04:39:15.326Z,-1.10
2023-02-27T04:42:06.872Z,-1.10
2023-02-27T04:44:40.352Z,-1.10
2023-02-27T04:47:15.930Z,-1.10
2023-02-27T04:49:55.541Z,-1.10
2023-02-27T04:55:22.053Z,-1.20
2023-02-27T04:58:03.603Z,-1.10
2023-02-27T05:00:39.844Z,-1.20
2023-02-27T05:03:18.229Z,-1.10
2023-02-27T05:05:56.061Z,-1.10
2023-02-27T05:08:44.787Z,-1.10
2023-02-27T05:11:30.052Z,-1.10
2023-02-27T05:14:13.865Z,-1.20
2023-02-27T05:17:02.882Z,-1.20
2023-02-27T05:19:40.599Z,-1.20
2023-02-27T05:22:24.467Z,-1.20
2023-02-27T05:25:10.820Z,-1.20
2023-02-27T05:27:56.461Z,-1.20
2023-02-27T05:30:38.196Z,-1.20
2023-02-27T05:33:34.484Z,-1.30
2023-02-27T05:36:11.109Z,-1.20
2023-02-27T05:38:49.479Z,-1.30
2023-02-27T05:41:33.196Z,-1.30
2023-02-27T05:44:15.586Z,-1.30
2023-02-27T05:46:54.442Z,-1.30
2023-02-27T05:49:36.979Z,-1.20
2023-02-27T05:52:14.480Z,-1.20
2023-02-27T05:54:52.533Z,-1.20
2023-02-27T05:57:46.897Z,-1.30
2023-02-27T06:00:43.807Z,-1.30
2023-02-27T06:03:16.665Z,-1.30
2023-02-27T06:05:55.018Z,-1.30
2023-02-27T06:08:28.732Z,-1.30
2023-02-27T06:11:02.997Z,-1.30
2023-02-27T06:13:36.614Z,-1.30
2023-02-27T06:16:14.759Z,-1.30
2023-02-27T06:18:47.591Z,-1.30
2023-02-27T06:21:20.686Z,-1.20
2023-02-27T06:23:53.407Z,-1.30
2023-02-27T06:26:26.589Z,-1.30
2023-02-27T06:28:59.865Z,-1.30
2023-02-27T06:31:32.894Z,-1.30
2023-02-27T06:34:05.661Z,-1.30
2023-02-27T06:36:38.620Z,-1.30
2023-02-27T06:39:11.872Z,-1.30
2023-02-27T06:41:44.760Z,-1.30
2023-02-27T06:44:19.605Z,-1.30
2023-02-27T06:46:52.539Z,-1.30
2023-02-27T06:49:25.285Z,-1.30
2023-02-27T06:51:58.167Z,-1.30
2023-02-27T06:54:30.803Z,-1.30
2023-02-27T06:57:03.959Z,-1.30
2023-02-27T06:59:36.709Z,-1.30
2023-02-27T07:02:14.529Z,-1.20
2023-02-27T07:04:47.713Z,-1.20
2023-02-27T07:07:34.674Z,-1.20
2023-02-27T07:10:12.995Z,-1.30
2023-02-27T07:12:45.749Z,-1.30
2023-02-27T07:15:18.574Z,-1.20
2023-02-27T07:17:51.270Z,-1.20
2023-02-27T07:20:23.934Z,-1.20
2023-02-27T07:22:56.617Z,-1.20
2023-02-27T07:25:29.466Z,-1.10
2023-02-27T07:28:02.381Z,-1.10
2023-02-27T07:30:35.122Z,-1.10
2023-02-27T07:33:08.033Z,-1.00
2023-02-27T07:35:40.721Z,-1.00
2023-02-27T07:38:13.450Z,-1.00
2023-02-27T07:40:46.481Z,-0.90
2023-02-27T07:43:19.285Z,-0.90
2023-02-27T07:45:52.223Z,-0.80
2023-02-27T07:48:24.895Z,-0.80
2023-02-27T07:50:57.822Z,-0.80
2023-02-27T07:53:30.575Z,-0.70
2023-02-27T07:56:03.274Z,-0.70
2023-02-27T07:58:36.277Z,-0.60
2023-02-27T08:01:09.032Z,-0.60
2023-02-27T08:03:41.788Z,-0.50
2023-02-27T08:06:14.485Z,-0.40
2023-02-27T08:08:47.956Z,-0.40
2023-02-27T08:11:20.699Z,-0.30
2023-02-27T08:14:02.030Z,-0.30
2023-02-27T08:16:36.377Z,-0.20
2023-02-27T08:19:09.375Z,-0.20
2023-02-27T08:21:42.877Z,-0.10
2023-02-27T08:24:15.754Z,-0.10
2023-02-27T08:26:48.723Z,0.00
2023-02-27T08:29:21.697Z,0.10
2023-02-27T08:31:54.733Z,0.20
2023-02-27T08:34:28.098Z,0.30
2023-02-27T08:37:00.795Z,0.30
2023-02-27T08:39:33.656Z,0.40
2023-02-27T08:42:07.253Z,0.40
2023-02-27T08:44:39.952Z,0.50
2023-02-27T08:47:12.612Z,0.50
2023-02-27T08:49:45.238Z,0.60
2023-02-27T08:52:18.040Z,0.70
2023-02-27T08:54:50.715Z,0.80
2023-02-27T08:57:23.553Z,0.80
2023-02-27T08:59:56.324Z,0.90
2023-02-27T09:02:29.685Z,0.90
2023-02-27T09:05:02.995Z,1.00
2023-02-27T09:07:35.721Z,1.00
2023-02-27T09:10:09.049Z,1.10
2023-02-27T09:12:42.818Z,1.20
2023-02-27T09:15:15.585Z,1.30
2023-02-27T09:17:48.338Z,1.40
2023-02-27T09:20:21.031Z,1.50
2023-02-27T09:22:53.726Z,1.60
2023-02-27T09:25:27.144Z,1.60
2023-02-27T09:27:59.921Z,1.50
2023-02-27T09:30:33.242Z,1.60
2023-02-27T09:33:06.015Z,1.50
2023-02-27T09:35:38.742Z,1.60
2023-02-27T09:38:12.216Z,1.70
2023-02-27T09:40:47.808Z,1.80
2023-02-27T09:43:51.019Z,1.70
2023-02-27T09:46:25.514Z,1.70
2023-02-27T09:49:04.380Z,1.80
2023-02-27T09:51:37.028Z,1.90
2023-02-27T09:54:11.723Z,1.90
2023-02-27T09:56:53.689Z,1.90
2023-02-27T09:59:56.257Z,1.90
2023-02-27T10:02:41.976Z,2.00
2023-02-27T10:05:40.281Z,2.20
2023-02-27T10:08:42.546Z,2.30
2023-02-27T10:11:20.466Z,2.40
2023-02-27T10:14:05.280Z,2.50
2023-02-27T10:16:39.102Z,2.50
2023-02-27T10:19:16.893Z,2.60
2023-02-27T10:21:53.685Z,2.60
2023-02-27T10:24:33.658Z,2.60
2023-02-27T10:27:13.073Z,2.60
2023-02-27T10:29:46.552Z,2.80
2023-02-27T10:32:29.809Z,3.00
2023-02-27T10:35:25.659Z,3.00
2023-02-27T10:38:05.998Z,3.00
2023-02-27T10:40:41.551Z,3.10
2023-02-27T10:43:18.242Z,3.20
2023-02-27T10:45:51.302Z,3.30
2023-02-27T10:48:24.184Z,3.50
2023-02-27T10:51:25.193Z,3.70
2023-02-27T10:54:26.007Z,3.70
2023-02-27T10:57:02.219Z,3.90
2023-02-27T10:59:42.082Z,4.00
2023-02-27T11:02:17.760Z,4.20
2023-02-27T11:04:55.592Z,4.20
2023-02-27T11:07:36.300Z,4.30
2023-02-27T11:10:15.231Z,4.40
2023-02-27T11:12:59.112Z,4.60
2023-02-27T11:15:38.256Z,4.80
2023-02-27T11:18:29.555Z,4.90
2023-02-27T11:21:23.844Z,4.80
2023-02-27T11:26:35.000Z,4.90
2023-02-27T11:29:14.798Z,5.20
2023-02-27T11:31:57.752Z,5.30
2023-02-27T11:34:40.567Z,5.40
2023-02-27T11:37:32.775Z,5.50
2023-02-27T11:40:15.366Z,5.60
2023-02-27T11:42:49.775Z,5.70
2023-02-27T11:46:04.821Z,5.80
2023-02-27T11:48:43.927Z,6.00
2023-02-27T11:51:38.808Z,6.00
2023-02-27T11:54:35.170Z,6.20
2023-02-27T11:57:25.865Z,6.20
2023-02-27T12:00:39.570Z,6.30
2023-02-27T12:03:25.116Z,6.30
2023-02-27T12:06:02.835Z,6.60
2023-02-27T12:08:46.003Z,6.80
2023-02-27T12:11:35.801Z,7.20
2023-02-27T12:14:08.623Z,7.40
2023-02-27T12:16:55.810Z,7.30
2023-02-27T12:19:38.481Z,7.20
2023-02-27T12:22:32.337Z,7.40
2023-02-27T12:25:26.123Z,7.40
2023-02-27T12:28:51.584Z,7.40
2023-02-27T12:31:31.834Z,7.40
2023-02-27T12:34:23.513Z,7.70
2023-02-27T12:37:10.126Z,7.90
2023-02-27T12:39:45.302Z,8.30
2023-02-27T12:42:39.111Z,8.70
2023-02-27T12:45:42.732Z,8.90
2023-02-27T12:48:41.728Z,8.60
2023-02-27T12:51:38.134Z,8.90
2023-02-27T12:54:24.095Z,9.20
2023-02-27T12:57:13.637Z,9.40
2023-02-27T13:00:01.962Z,9.60
2023-02-27T13:03:00.583Z,9.30
2023-02-27T13:05:38.624Z,9.50
2023-02-27T13:08:33.203Z,9.50
2023-02-27T13:11:43.342Z,9.70
2023-02-27T13:14:48.328Z,9.50
2023-02-27T13:17:42.956Z,9.40
2023-02-27T13:20:21.634Z,9.70
2023-02-27T13:23:11.344Z,9.40
2023-02-27T13:25:50.742Z,9.00
2023-02-27T13:28:27.205Z,8.10
2023-02-27T13:31:07.213Z,7.20
2023-02-27T13:33:51.130Z,6.50
2023-02-27T13:36:39.139Z,6.10
2023-02-27T13:39:43.655Z,5.70
2023-02-27T13:42:25.720Z,5.40
2023-02-27T13:45:04.090Z,5.20
2023-02-27T13:47:47.799Z,5.20
2023-02-27T13:50:21.242Z,5.20
2023-02-27T13:52:54.204Z,5.10
2023-02-27T13:55:35.107Z,5.10
2023-02-27T13:58:17.438Z,5.10
2023-02-27T14:00:57.120Z,5.00
2023-02-27T14:03:32.055Z,5.00
2023-02-27T14:06:06.078Z,5.00
2023-02-27T14:08:49.868Z,4.90
2023-02-27T14:11:30.723Z,5.00
2023-02-27T14:14:05.267Z,4.90
2023-02-27T14:16:40.681Z,5.00
2023-02-27T14:19:17.069Z,4.90
2023-02-27T14:21:57.359Z,4.80
2023-02-27T14:24:59.995Z,4.70
2023-02-27T14:27:57.175Z,4.70
2023-02-27T14:30:34.607Z,4.60
2023-02-27T14:33:40.150Z,4.60
2023-02-27T14:36:24.674Z,4.60
2023-02-27T14:39:00.140Z,4.60
2023-02-27T14:41:41.266Z,4.60
2023-02-27T14:44:25.875Z,4.60
2023-02-27T14:47:02.741Z,4.60
2023-02-27T14:49:36.106Z,4.50
2023-02-27T14:52:22.557Z,4.50
2023-02-27T14:55:12.690Z,4.50
2023-02-27T14:58:07.272Z,4.40
2023-02-27T15:00:43.759Z,4.40
2023-02-27T15:03:23.581Z,4.40
2023-02-27T15:06:01.519Z,4.30
2023-02-27T15:08:39.912Z,4.30
2023-02-27T15:11:18.566Z,4.30
2023-02-27T15:14:00.284Z,4.30
2023-02-27T15:16:40.588Z,4.30
2023-02-27T15:19:21.883Z,4.30
2023-02-27T15:21:58.586Z,4.20
2023-02-27T15:24:47.793Z,4.20
2023-02-27T15:27:24.660Z,4.20
2023-02-27T15:29:59.559Z,4.20
2023-02-27T15:32:35.644Z,4.30
2023-02-27T15:35:24.801Z,4.30
2023-02-27T15:37:59.829Z,4.30
2023-02-27T15:40:34.051Z,4.30
2023-02-27T15:43:07.030Z,4.30
2023-02-27T15:45:41.407Z,4.30
2023-02-27T15:48:15.541Z,4.30
2023-02-27T15:50:53.856Z,4.10
2023-02-27T15:53:29.559Z,4.00
2023-02-27T15:56:06.492Z,4.00
2023-02-27T15:58:53.215Z,4.00
2023-02-27T16:01:35.071Z,4.00
2023-02-27T16:04:20.841Z,4.00
2023-02-27T16:07:03.033Z,4.10
2023-02-27T16:09:38.292Z,4.00
2023-02-27T16:12:22.342Z,4.00
2023-02-27T16:15:21.978Z,3.90
2023-02-27T16:18:23.611Z,3.80
2023-02-27T16:21:10.264Z,3.80
2023-02-27T16:23:43.888Z,3.70
2023-02-27T16:26:27.242Z,3.70
2023-02-27T16:29:06.667Z,3.70
2023-02-27T16:31:45.404Z,3.70
2023-02-27T16:34:44.984Z,3.60
2023-02-27T16:37:25.248Z,3.60
2023-02-27T16:39:57.932Z,3.60
2023-02-27T16:42:30.710Z,3.50
2023-02-27T16:45:03.718Z,3.50
2023-02-27T16:47:36.486Z,3.40
2023-02-27T16:50:37.063Z,3.30
2023-02-27T16:53:09.731Z,3.30
2023-02-27T16:55:43.682Z,3.30
2023-02-27T16:58:17.556Z,3.30
2023-02-27T17:00:50.331Z,3.20
2023-02-27T17:03:23.028Z,3.20
2023-02-27T17:05:57.607Z,3.20
2023-02-27T17:08:31.123Z,3.10
2023-02-27T17:11:04.996Z,3.10
2023-02-27T17:13:37.920Z,3.10
2023-02-27T17:16:11.228Z,3.00
2023-02-27T17:18:43.934Z,3.00
2023-02-27T17:21:16.616Z,2.90
2023-02-27T17:23:49.270Z,2.80
2023-02-27T17:26:22.603Z,2.80
2023-02-27T17:28:56.290Z,2.80
2023-02-27T17:31:29.187Z,2.80
2023-02-27T17:34:04.430Z,2.70
2023-02-27T17:36:37.864Z,2.70
2023-02-27T17:39:13.675Z,2.70
2023-02-27T17:41:46.836Z,2.70
2023-02-27T17:44:19.600Z,2.60
2023-02-27T17:46:52.332Z,2.60
2023-02-27T17:49:25.022Z,2.50
2023-02-27T17:52:00.448Z,2.50
2023-02-27T17:54:34.258Z,2.50
2023-02-27T17:57:09.233Z,2.50
2023-02-27T17:59:43.302Z,2.40
2023-02-27T18:02:16.187Z,2.40
2023-02-27T18:04:49.062Z,2.40
2023-02-27T18:07:21.758Z,2.40
2023-02-27T18:09:54.495Z,2.40
2023-02-27T18:12:27.302Z,2.30
2023-02-27T18:15:00.485Z,2.20
2023-02-27T18:17:33.775Z,2.20
2023-02-27T18:20:07.193Z,2.20
2023-02-27T18:22:39.821Z,2.20
2023-02-27T18:25:12.565Z,2.20
2023-02-27T18:27:45.220Z,2.20
2023-02-27T18:30:20.147Z,2.10
2023-02-27T18:32:56.451Z,2.20
2023-02-27T18:35:29.293Z,2.10
2023-02-27T18:38:03.138Z,2.10
2023-02-27T18:40:35.844Z,2.10
2023-02-27T18:43:09.964Z,2.10
2023-02-27T18:45:42.772Z,2.10
2023-02-27T18:48:15.887Z,2.20
2023-02-27T18:50:49.167Z,2.10
2023-02-27T18:53:21.864Z,2.10
2023-02-27T18:56:00.509Z,2.10
2023-02-27T18:58:34.632Z,2.10
2023-02-27T19:01:07.898Z,2.10
2023-02-27T19:03:40.665Z,2.10
2023-02-27T19:06:13.497Z,2.10
2023-02-27T19:08:46.406Z,2.10
2023-02-27T19:11:24.802Z,2.10
2023-02-27T19:13:57.976Z,2.10
2023-02-27T19:16:31.154Z,2.10
2023-02-27T19:19:04.991Z,2.10
2023-02-27T19:21:38.036Z,2.10
2023-02-27T19:24:12.701Z,2.10
2023-02-27T19:26:45.479Z,2.10
2023-02-27T19:29:18.202Z,2.10
2023-02-27T19:31:50.920Z,2.10
2023-02-27T19:34:23.658Z,2.10
2023-02-27T19:36:56.310Z,2.10
2023-02-27T19:39:29.102Z,2.10
2023-02-27T19:42:01.841Z,2.10
2023-02-27T19:44:34.527Z,2.00
2023-02-27T19:47:07.318Z,2.10
2023-02-27T19:49:40.147Z,2.00
2023-02-27T19:52:13.174Z,2.10
2023-02-27T19:54:45.851Z,2.00
2023-02-27T19:57:20.429Z,2.00
2023-02-27T19:59:53.256Z,2.00
2023-02-27T20:02:26.493Z,2.00
2023-02-27T20:04:59.253Z,2.00
2023-02-27T20:07:32.408Z,2.00
2023-02-27T20:10:05.710Z,2.00
2023-02-27T20:12:38.444Z,1.90
2023-02-27T20:15:11.650Z,1.90
2023-02-27T20:17:44.417Z,1.90
2023-02-27T20:20:17.203Z,1.80
2023-02-27T20:22:52.316Z,1.80
2023-02-27T20:25:25.047Z,1.80
2023-02-27T20:27:57.749Z,1.80
2023-02-27T20:30:30.441Z,1.80
2023-02-27T20:33:03.153Z,1.80
2023-02-27T20:35:39.656Z,1.80
2023-02-27T20:38:12.844Z,1.80
2023-02-27T20:40:45.555Z,1.80
2023-02-27T20:43:18.218Z,1.80
2023-02-27T20:45:51.436Z,1.80
2023-02-27T20:48:24.188Z,1.80
2023-02-27T20:50:57.024Z,1.80
2023-02-27T20:53:29.735Z,1.70
2023-02-27T20:56:03.100Z,1.70
2023-02-27T20:58:36.643Z,1.70
2023-02-27T21:01:11.508Z,1.70
2023-02-27T21:03:46.450Z,1.60
2023-02-27T21:06:19.548Z,1.60
2023-02-27T21:08:55.194Z,1.60
2023-02-27T21:11:30.433Z,1.60
2023-02-27T21:14:11.735Z,1.60
2023-02-27T21:16:44.485Z,1.60
2023-02-27T21:19:20.647Z,1.60
2023-02-27T21:21:53.404Z,1.60
2023-02-27T21:24:26.161Z,1.60
2023-02-27T21:26:59.376Z,1.60
2023-02-27T21:29:32.072Z,1.50
2023-02-27T21:32:05.014Z,1.50
2023-02-27T21:34:37.852Z,1.50
2023-02-27T21:37:12.349Z,1.50
2023-02-27T21:39:50.308Z,1.40
2023-02-27T21:42:23.938Z,1.40
2023-02-27T21:44:56.819Z,1.40
2023-02-27T21:47:29.460Z,1.40
2023-02-27T21:50:02.201Z,1.40
2023-02-27T21:52:34.862Z,1.40
2023-02-27T21:55:08.620Z,1.40
2023-02-27T21:57:41.883Z,1.40
2023-02-27T22:00:15.920Z,1.40
2023-02-27T22:02:48.677Z,1.30
2023-02-27T22:05:21.416Z,1.30
2023-02-27T22:07:54.042Z,1.30
2023-02-27T22:10:26.740Z,1.20
2023-02-27T22:12:59.403Z,1.20
2023-02-27T22:15:34.871Z,1.20
2023-02-27T22:18:08.188Z,1.10
2023-02-27T22:20:41.554Z,1.00
2023-02-27T22:23:14.383Z,1.00
2023-02-27T22:25:47.031Z,1.00
2023-02-27T22:28:19.706Z,1.00
2023-02-27T22:30:56.183Z,1.00
2023-02-27T22:33:30.995Z,1.00
2023-02-27T22:36:08.776Z,0.90
2023-02-27T22:38:42.602Z,0.90
2023-02-27T22:41:18.708Z,0.80
2023-02-27T22:43:51.720Z,0.80
2023-02-27T22:46:30.528Z,0.80
2023-02-27T22:49:06.390Z,0.70
2023-02-27T22:51:39.306Z,0.70
2023-02-27T22:54:13.494Z,0.70
2023-02-27T22:56:46.192Z,0.60
2023-02-27T22:59:19.335Z,0.60
2023-02-27T23:01:52.431Z,0.60
2023-02-27T23:04:25.261Z,0.50
2023-02-27T23:06:57.947Z,0.60
2023-02-27T23:09:30.692Z,0.50
2023-02-27T23:12:04.314Z,0.50
2023-02-27T23:14:37.083Z,0.50
2023-02-27T23:17:09.742Z,0.50
2023-02-27T23:19:43.753Z,0.40
2023-02-27T23:22:16.400Z,0.40
2023-02-27T23:24:49.046Z,0.40
2023-02-27T23:27:26.201Z,0.50
2023-02-27T23:29:59.117Z,0.40
2023-02-27T23:32:31.889Z,0.40
2023-02-27T23:35:05.152Z,0.40
2023-02-27T23:37:38.762Z,0.40
2023-02-27T23:40:11.869Z,0.30
2023-02-27T23:43:03.187Z,0.30
2023-02-27T23:45:35.968Z,0.30
2023-02-27T23:48:09.137Z,0.20
2023-02-27T23:50:43.848Z,0.20
2023-02-27T23:53:16.796Z,0.20
2023-02-27T23:55:49.462Z,0.20
2023-02-27T23:58:22.269Z,0.10
